createdAt,value
2023-12-19T00:01:23.519Z,101390.94
2023-12-19T00:03:51.956Z,101394.44
2023-12-19T00:06:20.252Z,101395.44
2023-12-19T00:08:48.359Z,101385.59
2023-12-19T00:11:16.632Z,101383.66
2023-12-19T00:13:44.946Z,101376.91
2023-12-19T00:16:14.657Z,101385.47
2023-12-19T00:18:43.005Z,101376.63
2023-12-19T00:21:11.120Z,101373.00
2023-12-19T00:23:39.391Z,101371.28
2023-12-19T00:26:07.645Z,101371.28
2023-12-19T00:28:35.842Z,101369.63
2023-12-19T00:31:04.202Z,101368.06
2023-12-19T00:33:34.888Z,101368.22
2023-12-19T00:36:03.191Z,101370.88
2023-12-19T00:38:31.394Z,101370.88
2023-12-19T00:40:59.644Z,101384.22
2023-12-19T00:43:27.736Z,101376.34
2023-12-19T00:45:55.869Z,101376.34
2023-12-19T00:48:25.198Z,101375.50
2023-12-19T00:50:54.772Z,101379.13
2023-12-19T00:53:22.847Z,101369.56
2023-12-19T00:55:50.946Z,101365.94
2023-12-19T00:58:19.030Z,101362.44
2023-12-19T01:00:47.309Z,101363.41
2023-12-19T01:03:16.155Z,101367.06
2023-12-19T01:05:44.871Z,101367.91
2023-12-19T01:08:14.524Z,101367.06
2023-12-19T01:10:42.782Z,101360.03
2023-12-19T01:13:11.011Z,101366.22
2023-12-19T01:15:39.192Z,101364.25
2023-12-19T01:18:07.536Z,101354.47
2023-12-19T01:20:35.694Z,101354.31
2023-12-19T01:23:03.945Z,101348.97
2023-12-19T01:25:33.588Z,101358.78
2023-12-19T01:28:10.855Z,101358.91
2023-12-19T01:30:40.476Z,101353.75
2023-12-19T01:33:09.586Z,101353.03
2023-12-19T01:35:37.904Z,101354.09
2023-12-19T01:38:06.122Z,101355.94
2023-12-19T01:40:42.592Z,101330.25
2023-12-19T01:43:19.243Z,101345.41
2023-12-19T01:45:47.551Z,101351.56
2023-12-19T01:48:15.990Z,101344.56
2023-12-19T01:50:44.163Z,101336.72
2023-12-19T01:53:12.305Z,101335.84
2023-12-19T01:55:40.708Z,101335.84
2023-12-19T01:58:10.322Z,101339.50
2023-12-19T02:00:38.687Z,101337.84
2023-12-19T02:03:07.330Z,101335.16
2023-12-19T02:05:35.565Z,101333.47
2023-12-19T02:08:03.783Z,101334.31
2023-12-19T02:10:32.915Z,101325.47
2023-12-19T02:13:01.623Z,101324.75
2023-12-19T02:15:31.246Z,101322.81
2023-12-19T02:17:59.515Z,101312.88
2023-12-19T02:20:27.793Z,101319.03
2023-12-19T02:22:57.329Z,101309.94
2023-12-19T02:25:25.479Z,101301.94
2023-12-19T02:27:53.638Z,101303.59
2023-12-19T02:30:21.840Z,101303.88
2023-12-19T02:32:49.962Z,101306.53
2023-12-19T02:35:18.319Z,101306.69
2023-12-19T02:37:46.431Z,101312.97
2023-12-19T02:40:16.230Z,101311.44
2023-12-19T02:42:44.736Z,101311.44
2023-12-19T02:45:13.319Z,101316.75
2023-12-19T02:47:41.629Z,101313.41
2023-12-19T02:50:10.109Z,101300.22
2023-12-19T02:52:38.353Z,101299.22
2023-12-19T02:55:07.491Z,101292.22
2023-12-19T02:57:37.209Z,101294.88
2023-12-19T03:00:07.111Z,101288.72
2023-12-19T03:02:35.309Z,101300.34
2023-12-19T03:05:03.680Z,101291.38
2023-12-19T03:07:34.004Z,101281.69
2023-12-19T03:10:07.084Z,101282.56
2023-12-19T03:12:37.336Z,101281.69
2023-12-19T03:15:07.030Z,101299.38
2023-12-19T03:17:35.329Z,101290.41
2023-12-19T03:20:03.540Z,101282.41
2023-12-19T03:22:31.682Z,101290.41
2023-12-19T03:24:59.874Z,101286.78
2023-12-19T03:27:44.708Z,101278.78
2023-12-19T03:30:13.788Z,101279.63
2023-12-19T03:32:42.172Z,101281.44
2023-12-19T03:35:11.838Z,101278.78
2023-12-19T03:37:40.348Z,101279.75
2023-12-19T03:40:10.768Z,101277.09
2023-12-19T03:42:40.160Z,101268.38
2023-12-19T03:45:10.903Z,101264.03
2023-12-19T03:47:39.619Z,101269.38
2023-12-19T03:50:08.865Z,101274.69
2023-12-19T03:52:37.005Z,101273.03
2023-12-19T03:55:05.941Z,101274.81
2023-12-19T03:57:35.992Z,101276.63
2023-12-19T04:00:05.279Z,101273.03
2023-12-19T04:02:34.915Z,101276.63
2023-12-19T04:05:03.160Z,101280.16
2023-12-19T04:07:31.379Z,101278.34
2023-12-19T04:10:00.246Z,101280.16
2023-12-19T04:12:28.804Z,101273.97
2023-12-19T04:14:56.978Z,101272.16
2023-12-19T04:17:25.366Z,101276.63
2023-12-19T04:19:55.807Z,101281.97
2023-12-19T04:22:24.126Z,101275.81
2023-12-19T04:24:52.402Z,101271.31
2023-12-19T04:27:20.647Z,101273.16
2023-12-19T04:29:48.852Z,101281.97
2023-12-19T04:32:17.063Z,101273.97
2023-12-19T04:34:45.310Z,101279.31
2023-12-19T04:37:14.930Z,101272.31
2023-12-19T04:39:43.143Z,101278.47
2023-12-19T04:42:13.786Z,101275.81
2023-12-19T04:44:42.017Z,101272.44
2023-12-19T04:47:10.135Z,101271.59
2023-12-19T04:49:38.845Z,101282.13
2023-12-19T04:52:07.219Z,101284.78
2023-12-19T04:54:37.127Z,101281.28
2023-12-19T04:57:06.900Z,101276.91
2023-12-19T04:59:35.214Z,101281.41
2023-12-19T05:02:03.763Z,101279.59
2023-12-19T05:04:31.976Z,101276.34
2023-12-19T05:07:00.487Z,101276.22
2023-12-19T05:09:28.758Z,101273.53
2023-12-19T05:11:58.325Z,101273.53
2023-12-19T05:14:26.642Z,101277.19
2023-12-19T05:16:54.794Z,101275.38
2023-12-19T05:19:23.114Z,101271.88
2023-12-19T05:21:51.348Z,101277.19
2023-12-19T05:24:20.564Z,101283.50
2023-12-19T05:26:48.679Z,101275.53
2023-12-19T05:29:18.234Z,101282.53
2023-12-19T05:31:46.421Z,101279.84
2023-12-19T05:34:14.750Z,101281.69
2023-12-19T05:36:50.421Z,101281.69
2023-12-19T05:39:19.291Z,101280.84
2023-12-19T05:41:47.486Z,101273.81
2023-12-19T05:44:17.810Z,101272.16
2023-12-19T05:46:46.026Z,101272.16
2023-12-19T05:49:17.345Z,101272.97
2023-12-19T05:51:45.646Z,101275.63
2023-12-19T05:54:13.801Z,101272.16
2023-12-19T05:56:42.009Z,101273.09
2023-12-19T05:59:11.183Z,101274.94
2023-12-19T06:01:45.289Z,101274.94
2023-12-19T06:04:13.788Z,101274.09
2023-12-19T06:06:45.472Z,101274.09
2023-12-19T06:09:14.278Z,101266.22
2023-12-19T06:11:42.571Z,101271.56
2023-12-19T06:14:10.793Z,101269.03
2023-12-19T06:16:38.999Z,101269.03
2023-12-19T06:19:08.720Z,101269.03
2023-12-19T06:21:36.940Z,101266.38
2023-12-19T06:24:05.565Z,101266.38
2023-12-19T06:26:33.808Z,101263.72
2023-12-19T06:29:02.315Z,101272.66
2023-12-19T06:31:30.644Z,101268.19
2023-12-19T06:33:59.047Z,101270.72
2023-12-19T06:36:34.574Z,101275.19
2023-12-19T06:39:02.953Z,101273.38
2023-12-19T06:41:31.269Z,101265.38
2023-12-19T06:43:59.509Z,101263.72
2023-12-19T06:46:27.745Z,101260.06
2023-12-19T06:48:56.150Z,101262.00
2023-12-19T06:51:25.777Z,101264.66
2023-12-19T06:53:57.606Z,101253.19
2023-12-19T06:56:28.655Z,101255.84
2023-12-19T06:58:57.020Z,101270.00
2023-12-19T07:01:25.965Z,101266.50
2023-12-19T07:03:54.333Z,101271.81
2023-12-19T07:06:22.703Z,101265.66
2023-12-19T07:08:53.322Z,101263.00
2023-12-19T07:11:23.430Z,101255.00
2023-12-19T07:13:51.706Z,101255.00
2023-12-19T07:16:20.511Z,101259.50
2023-12-19T07:18:49.133Z,101248.00
2023-12-19T07:21:22.005Z,101251.63
2023-12-19T07:23:50.153Z,101255.00
2023-12-19T07:26:31.643Z,101258.50
2023-12-19T07:29:00.317Z,101250.41
2023-12-19T07:31:29.182Z,101247.47
2023-12-19T07:33:59.070Z,101243.81
2023-12-19T07:36:27.521Z,101243.56
2023-12-19T07:38:55.681Z,101243.56
2023-12-19T07:41:24.370Z,101242.56
2023-12-19T07:43:53.968Z,101241.59
2023-12-19T07:46:22.190Z,101237.97
2023-12-19T07:48:50.577Z,101243.28
2023-12-19T07:51:18.954Z,101239.63
2023-12-19T07:53:48.003Z,101237.69
2023-12-19T07:56:16.193Z,101237.69
2023-12-19T07:58:44.713Z,101232.34
2023-12-19T08:01:15.014Z,101234.03
2023-12-19T08:03:44.041Z,101234.03
2023-12-19T08:06:12.477Z,101236.56
2023-12-19T08:08:40.670Z,101234.75
2023-12-19T08:11:09.927Z,101233.75
2023-12-19T08:13:38.377Z,101231.78
2023-12-19T08:16:07.557Z,101226.47
2023-12-19T08:18:37.910Z,101233.50
2023-12-19T08:21:06.594Z,101224.53
2023-12-19T08:23:34.818Z,101223.53
2023-12-19T08:26:03.927Z,101221.56
2023-12-19T08:28:32.036Z,101223.28
2023-12-19T08:31:00.490Z,101221.44
2023-12-19T08:33:28.817Z,101218.63
2023-12-19T08:35:58.373Z,101218.50
2023-12-19T08:38:26.507Z,101212.19
2023-12-19T08:40:54.633Z,101206.84
2023-12-19T08:43:23.652Z,101198.75
2023-12-19T08:45:52.080Z,101197.75
2023-12-19T08:48:21.268Z,101201.28
2023-12-19T08:50:49.650Z,101200.31
2023-12-19T08:53:20.251Z,101198.50
2023-12-19T08:55:48.483Z,101189.50
2023-12-19T08:58:16.597Z,101198.22
2023-12-19T09:00:44.879Z,101198.22
2023-12-19T09:03:13.052Z,101192.75
2023-12-19T09:05:41.173Z,101186.44
2023-12-19T09:08:09.340Z,101174.81
2023-12-19T09:10:39.008Z,101172.97
2023-12-19T09:13:07.465Z,101167.50
2023-12-19T09:15:36.476Z,101162.88
2023-12-19T09:18:05.275Z,101156.72
2023-12-19T09:20:33.680Z,101143.38
2023-12-19T09:23:02.008Z,101144.09
2023-12-19T09:25:30.495Z,101145.75
2023-12-19T09:28:00.063Z,101136.78
2023-12-19T09:30:28.437Z,101132.31
2023-12-19T09:32:56.824Z,101133.97
2023-12-19T09:35:25.027Z,101131.19
2023-12-19T09:37:53.162Z,101127.53
2023-12-19T09:40:28.348Z,101118.53
2023-12-19T09:42:56.724Z,101105.91
2023-12-19T09:45:26.449Z,101101.41
2023-12-19T09:48:00.629Z,101099.63
2023-12-19T09:50:29.066Z,101091.34
2023-12-19T09:52:57.474Z,101086.69
2023-12-19T09:55:26.769Z,101083.19
2023-12-19T09:57:55.009Z,101081.22
2023-12-19T10:00:23.756Z,101082.06
2023-12-19T10:02:55.152Z,101075.59
2023-12-19T10:05:23.333Z,101061.13
2023-12-19T10:07:51.627Z,101060.84
2023-12-19T10:10:19.996Z,101057.88
2023-12-19T10:12:57.000Z,101050.59
2023-12-19T10:15:27.318Z,101041.31
2023-12-19T10:18:12.919Z,101032.03
2023-12-19T10:20:42.111Z,101029.09
2023-12-19T10:23:10.766Z,101027.81
2023-12-19T10:25:45.365Z,101029.19
2023-12-19T10:28:16.100Z,101032.41
2023-12-19T10:30:46.130Z,101027.59
2023-12-19T10:33:16.833Z,101017.31
2023-12-19T10:35:46.413Z,101003.56
2023-12-19T10:38:14.930Z,100995.94
2023-12-19T10:40:43.208Z,101001.81
2023-12-19T10:43:11.683Z,100984.38
2023-12-19T10:45:40.187Z,100979.91
2023-12-19T10:48:09.492Z,100976.91
2023-12-19T10:50:39.388Z,100970.88
2023-12-19T10:53:07.824Z,100966.94
2023-12-19T10:55:39.002Z,100955.97
2023-12-19T10:58:07.525Z,100956.63
2023-12-19T11:00:36.375Z,100946.66
2023-12-19T11:03:09.086Z,100954.91
2023-12-19T11:05:42.594Z,100948.72
2023-12-19T11:08:13.597Z,100944.06
2023-12-19T11:10:42.030Z,100948.13
2023-12-19T11:13:10.309Z,100941.66
2023-12-19T11:15:40.919Z,100935.16
2023-12-19T11:18:18.299Z,100940.19
2023-12-19T11:20:54.368Z,100936.25
2023-12-19T11:23:27.475Z,100936.06
2023-12-19T11:25:57.133Z,100934.94
2023-12-19T11:28:27.318Z,100934.94
2023-12-19T11:30:55.507Z,100925.63
2023-12-19T11:33:30.443Z,100912.94
2023-12-19T11:36:11.598Z,100914.31
2023-12-19T11:38:39.773Z,100909.66
2023-12-19T11:41:07.964Z,100899.66
2023-12-19T11:43:53.971Z,100896.00
2023-12-19T11:46:22.189Z,100903.00
2023-12-19T11:48:51.117Z,100892.31
2023-12-19T11:51:51.688Z,100896.50
2023-12-19T11:54:20.599Z,100898.22
2023-12-19T11:56:58.664Z,100883.00
2023-12-19T11:59:27.003Z,100882.00
2023-12-19T12:01:55.646Z,100872.00
2023-12-19T12:04:24.099Z,100880.72
2023-12-19T12:06:58.386Z,100876.22
2023-12-19T12:09:26.714Z,100884.06
2023-12-19T12:11:55.476Z,100875.88
2023-12-19T12:14:23.977Z,100867.72
2023-12-19T12:16:52.875Z,100868.56
2023-12-19T12:19:25.023Z,100873.91
2023-12-19T12:21:56.086Z,100873.72
2023-12-19T12:24:32.245Z,100877.25
2023-12-19T12:27:12.178Z,100874.41
2023-12-19T12:29:40.783Z,100865.41
2023-12-19T12:32:09.225Z,100878.91
2023-12-19T12:34:37.491Z,100869.91
2023-12-19T12:37:07.315Z,100870.91
2023-12-19T12:39:36.425Z,100869.06
2023-12-19T12:42:05.067Z,100864.56
2023-12-19T12:44:33.255Z,100861.75
2023-12-19T12:47:06.593Z,100854.56
2023-12-19T12:49:35.218Z,100849.06
2023-12-19T12:52:05.192Z,100834.03
2023-12-19T12:54:34.781Z,100828.84
2023-12-19T12:57:03.092Z,100830.53
2023-12-19T12:59:31.250Z,100815.31
2023-12-19T13:01:59.626Z,100812.81
2023-12-19T13:04:27.788Z,100808.47
2023-12-19T13:06:56.209Z,100812.00
2023-12-19T13:09:24.641Z,100804.81
2023-12-19T13:11:55.508Z,100801.31
2023-12-19T13:14:24.684Z,100801.31
2023-12-19T13:16:52.838Z,100803.97
2023-12-19T13:19:22.425Z,100793.28
2023-12-19T13:21:50.708Z,100788.94
2023-12-19T13:24:19.815Z,100783.59
2023-12-19T13:26:48.084Z,100788.94
2023-12-19T13:29:17.762Z,100774.59
2023-12-19T13:31:46.657Z,100773.22
2023-12-19T13:34:15.017Z,100773.59
2023-12-19T13:36:44.627Z,100771.75
2023-12-19T13:39:13.986Z,100767.09
2023-12-19T13:41:42.678Z,100759.22
2023-12-19T13:44:11.065Z,100751.75
2023-12-19T13:46:41.365Z,100750.91
2023-12-19T13:49:10.743Z,100749.91
2023-12-19T13:51:38.970Z,100734.88
2023-12-19T13:54:07.383Z,100734.88
2023-12-19T13:56:35.604Z,100723.34
2023-12-19T13:59:06.699Z,100729.69
2023-12-19T14:01:35.009Z,100730.53
2023-12-19T14:04:04.722Z,100728.84
2023-12-19T14:06:32.895Z,100720.00
2023-12-19T14:09:01.086Z,100716.47
2023-12-19T14:11:29.205Z,100714.81
2023-12-19T14:13:57.910Z,100715.81
2023-12-19T14:16:27.369Z,100714.97
2023-12-19T14:18:55.797Z,100712.47
2023-12-19T14:21:25.547Z,100710.78
2023-12-19T14:23:53.655Z,100710.78
2023-12-19T14:26:21.909Z,100702.13
2023-12-19T14:28:50.017Z,100700.44
2023-12-19T14:31:18.860Z,100707.63
2023-12-19T14:33:47.571Z,100700.75
2023-12-19T14:36:17.115Z,100701.75
2023-12-19T14:38:47.083Z,100697.41
2023-12-19T14:41:15.727Z,100694.09
2023-12-19T14:43:44.580Z,100694.22
2023-12-19T14:46:12.916Z,100692.38
2023-12-19T14:48:41.224Z,100693.41
2023-12-19T14:51:09.925Z,100690.72
2023-12-19T14:53:38.211Z,100696.22
2023-12-19T14:56:09.868Z,100690.19
2023-12-19T14:58:38.386Z,100686.00
2023-12-19T15:01:06.961Z,100687.69
2023-12-19T15:03:35.364Z,100685.38
2023-12-19T15:06:04.307Z,100682.69
2023-12-19T15:08:32.986Z,100682.84
2023-12-19T15:11:01.337Z,100679.47
2023-12-19T15:13:31.097Z,100677.69
2023-12-19T15:15:59.335Z,100669.00
2023-12-19T15:18:33.823Z,100674.31
2023-12-19T15:21:07.513Z,100662.28
2023-12-19T15:23:35.706Z,100667.63
2023-12-19T15:26:03.907Z,100668.63
2023-12-19T15:28:34.066Z,100665.97
2023-12-19T15:31:03.034Z,100667.94
2023-12-19T15:33:31.359Z,100666.28
2023-12-19T15:35:59.826Z,100658.44
2023-12-19T15:38:29.299Z,100656.75
2023-12-19T15:40:59.227Z,100661.28
2023-12-19T15:43:37.571Z,100657.91
2023-12-19T15:46:11.164Z,100654.41
2023-12-19T15:48:39.500Z,100657.25
2023-12-19T15:51:07.710Z,100649.22
2023-12-19T15:53:36.007Z,100655.56
2023-12-19T15:56:04.299Z,100649.56
2023-12-19T15:58:33.627Z,100659.41
2023-12-19T16:01:02.783Z,100654.22
2023-12-19T16:03:32.449Z,100656.88
2023-12-19T16:06:01.832Z,100656.88
2023-12-19T16:08:30.434Z,100646.34
2023-12-19T16:10:58.659Z,100649.03
2023-12-19T16:13:26.852Z,100649.03
2023-12-19T16:15:55.585Z,100643.84
2023-12-19T16:18:26.487Z,100634.19
2023-12-19T16:20:56.172Z,100630.13
2023-12-19T16:23:24.327Z,100633.50
2023-12-19T16:25:56.207Z,100639.81
2023-12-19T16:28:24.477Z,100629.16
2023-12-19T16:30:52.699Z,100622.13
2023-12-19T16:33:22.558Z,100621.44
2023-12-19T16:35:52.089Z,100624.94
2023-12-19T16:38:21.676Z,100621.44
2023-12-19T16:40:50.923Z,100617.09
2023-12-19T16:43:21.324Z,100611.78
2023-12-19T16:45:49.558Z,100611.78
2023-12-19T16:48:17.707Z,100610.06
2023-12-19T16:50:46.166Z,100606.59
2023-12-19T16:53:14.549Z,100609.25
2023-12-19T16:55:45.047Z,100603.09
2023-12-19T16:58:13.656Z,100596.91
2023-12-19T17:00:41.995Z,100591.56
2023-12-19T17:03:10.142Z,100590.75
2023-12-19T17:05:38.624Z,100585.41
2023-12-19T17:08:07.278Z,100584.41
2023-12-19T17:10:35.405Z,100584.41
2023-12-19T17:13:05.766Z,100580.91
2023-12-19T17:15:34.011Z,100586.25
2023-12-19T17:18:02.179Z,100573.03
2023-12-19T17:20:30.313Z,100567.72
2023-12-19T17:22:58.489Z,100565.03
2023-12-19T17:25:26.738Z,100565.03
2023-12-19T17:27:55.082Z,100553.69
2023-12-19T17:30:24.700Z,100548.34
2023-12-19T17:32:52.925Z,100546.69
2023-12-19T17:35:21.379Z,100544.03
2023-12-19T17:37:49.536Z,100543.34
2023-12-19T17:40:18.581Z,100537.19
2023-12-19T17:42:47.215Z,100538.00
2023-12-19T17:45:15.566Z,100536.34
2023-12-19T17:47:46.134Z,100532.03
2023-12-19T17:50:14.659Z,100535.53
2023-12-19T17:52:43.337Z,100535.53
2023-12-19T17:55:11.616Z,100529.34
2023-12-19T17:57:39.776Z,100528.50
2023-12-19T18:00:10.367Z,100526.00
2023-12-19T18:02:38.533Z,100527.84
2023-12-19T18:05:09.012Z,100520.66
2023-12-19T18:07:37.319Z,100521.50
2023-12-19T18:10:06.272Z,100521.66
2023-12-19T18:12:35.243Z,100519.84
2023-12-19T18:15:03.415Z,100513.63
2023-12-19T18:17:31.603Z,100502.97
2023-12-19T18:19:59.900Z,100508.31
2023-12-19T18:22:29.719Z,100508.31
2023-12-19T18:24:58.928Z,100508.31
2023-12-19T18:27:27.173Z,100505.63
2023-12-19T18:29:55.361Z,100512.81
2023-12-19T18:32:24.375Z,100503.16
2023-12-19T18:34:52.630Z,100506.66
2023-12-19T18:37:21.065Z,100497.97
2023-12-19T18:39:50.708Z,100491.78
2023-12-19T18:42:18.984Z,100495.28
2023-12-19T18:44:47.273Z,100498.78
2023-12-19T18:47:15.486Z,100489.28
2023-12-19T18:49:44.403Z,100490.13
2023-12-19T18:52:12.690Z,100487.63
2023-12-19T18:54:40.926Z,100486.63
2023-12-19T18:57:10.597Z,100487.63
2023-12-19T18:59:38.854Z,100476.94
2023-12-19T19:02:08.145Z,100474.28
2023-12-19T19:04:36.497Z,100469.97
2023-12-19T19:07:05.555Z,100476.13
2023-12-19T19:09:34.010Z,100466.44
2023-12-19T19:12:02.234Z,100457.59
2023-12-19T19:14:31.800Z,100453.09
2023-12-19T19:16:59.977Z,100449.59
2023-12-19T19:19:28.279Z,100453.94
2023-12-19T19:21:56.779Z,100451.28
2023-12-19T19:24:25.033Z,100432.63
2023-12-19T19:26:54.846Z,100437.94
2023-12-19T19:29:24.163Z,100437.28
2023-12-19T19:31:53.843Z,100430.91
2023-12-19T19:34:22.140Z,100432.75
2023-12-19T19:36:51.125Z,100423.94
2023-12-19T19:39:19.927Z,100426.59
2023-12-19T19:41:49.311Z,100416.06
2023-12-19T19:44:17.598Z,100425.91
2023-12-19T19:46:45.697Z,100425.09
2023-12-19T19:49:15.855Z,100425.91
2023-12-19T19:51:45.346Z,100419.75
2023-12-19T19:54:13.667Z,100414.41
2023-12-19T19:56:41.845Z,100409.25
2023-12-19T19:59:11.453Z,100407.44
2023-12-19T20:01:40.462Z,100408.41
2023-12-19T20:04:08.786Z,100403.06
2023-12-19T20:06:38.498Z,100396.91
2023-12-19T20:09:06.725Z,100397.06
2023-12-19T20:11:34.930Z,100384.59
2023-12-19T20:14:03.733Z,100378.41
2023-12-19T20:16:34.115Z,100375.72
2023-12-19T20:19:02.444Z,100364.22
2023-12-19T20:21:31.582Z,100365.91
2023-12-19T20:24:05.558Z,100370.25
2023-12-19T20:26:34.005Z,100365.91
2023-12-19T20:29:02.959Z,100365.91
2023-12-19T20:31:31.242Z,100357.25
2023-12-19T20:33:59.620Z,100358.91
2023-12-19T20:36:28.067Z,100356.22
2023-12-19T20:38:56.209Z,100348.22
2023-12-19T20:41:26.085Z,100351.91
2023-12-19T20:43:54.431Z,100339.56
2023-12-19T20:46:22.685Z,100340.41
2023-12-19T20:48:50.980Z,100333.38
2023-12-19T20:51:19.365Z,100343.22
2023-12-19T20:53:47.642Z,100332.56
2023-12-19T20:56:16.761Z,100329.06
2023-12-19T20:58:46.459Z,100328.25
2023-12-19T21:01:14.822Z,100317.72
2023-12-19T21:03:44.876Z,100318.56
2023-12-19T21:06:13.101Z,100306.22
2023-12-19T21:08:41.648Z,100301.72
2023-12-19T21:11:09.803Z,100300.91
2023-12-19T21:13:37.997Z,100296.53
2023-12-19T21:16:07.997Z,100298.22
2023-12-19T21:18:37.836Z,100285.88
2023-12-19T21:21:09.344Z,100284.88
2023-12-19T21:23:37.565Z,100283.06
2023-12-19T21:26:04.784Z,100276.06
2023-12-19T21:28:33.652Z,100270.72
2023-12-19T21:31:02.140Z,100276.88
2023-12-19T21:33:31.984Z,100268.06
2023-12-19T21:35:59.279Z,100267.22
2023-12-19T21:38:27.462Z,100264.53
2023-12-19T21:40:55.799Z,100261.03
2023-12-19T21:43:24.002Z,100260.22
2023-12-19T21:45:52.577Z,100247.91
2023-12-19T21:48:20.948Z,100248.88
2023-12-19T21:50:50.695Z,100243.53
2023-12-19T21:53:18.884Z,100234.72
2023-12-19T21:55:46.959Z,100233.88
2023-12-19T21:58:15.152Z,100233.88
2023-12-19T22:00:43.985Z,100228.72
2023-12-19T22:03:12.196Z,100221.56
2023-12-19T22:05:42.512Z,100226.03
2023-12-19T22:08:12.085Z,100213.72
2023-12-19T22:10:40.329Z,100210.22
2023-12-19T22:13:08.578Z,100206.75
2023-12-19T22:15:36.759Z,100195.22
2023-12-19T22:18:05.321Z,100187.22
2023-12-19T22:20:35.787Z,100189.88
2023-12-19T22:23:03.986Z,100180.06
2023-12-19T22:25:33.505Z,100186.22
2023-12-19T22:28:01.709Z,100179.06
2023-12-19T22:30:29.912Z,100161.41
2023-12-19T22:32:58.195Z,100156.22
2023-12-19T22:35:26.355Z,100155.41
2023-12-19T22:37:54.987Z,100144.75
2023-12-19T22:40:24.627Z,100141.25
2023-12-19T22:42:54.533Z,100136.91
2023-12-19T22:45:22.652Z,100147.56
2023-12-19T22:47:50.862Z,100136.91
2023-12-19T22:50:19.256Z,100130.91
2023-12-19T22:52:49.156Z,100122.91
2023-12-19T22:55:17.578Z,100122.91
2023-12-19T22:57:46.672Z,100125.56
2023-12-19T23:00:18.855Z,100117.56
2023-12-19T23:02:47.159Z,100109.91
2023-12-19T23:05:15.472Z,100107.25
2023-12-19T23:07:43.762Z,100099.25
2023-12-19T23:10:14.929Z,100099.25
2023-12-19T23:12:43.581Z,100102.75
2023-12-19T23:15:11.991Z,100100.94
2023-12-19T23:17:41.627Z,100096.56
2023-12-19T23:20:11.197Z,100086.75
2023-12-19T23:22:40.989Z,100085.09
2023-12-19T23:25:09.764Z,100076.94
2023-12-19T23:27:37.909Z,100075.25
2023-12-19T23:30:07.237Z,100069.09
2023-12-19T23:32:35.674Z,100066.28
2023-12-19T23:35:05.665Z,100059.25
2023-12-19T23:37:33.833Z,100056.78
2023-12-19T23:40:02.117Z,100059.44
2023-12-19T23:42:30.330Z,100050.63
2023-12-19T23:44:58.661Z,100047.28
2023-12-19T23:47:26.870Z,100041.97
2023-12-19T23:49:55.477Z,100037.44
2023-12-19T23:52:25.126Z,100031.44
2023-12-19T23:54:53.340Z,100029.63
2023-12-19T23:57:21.667Z,100023.66
2023-12-19T23:59:49.855Z,100020.97
